createdAt,value
2023-04-24T00:00:16.040Z,8.70
2023-04-24T00:05:20.227Z,9.07
2023-04-24T00:10:24.398Z,8.57
2023-04-24T00:15:26.073Z,8.40
2023-04-24T00:20:30.530Z,9.73
2023-04-24T00:25:32.477Z,9.32
2023-04-24T00:30:39.254Z,8.98
2023-04-24T00:35:43.194Z,7.50
2023-04-24T00:40:48.495Z,7.80
2023-04-24T00:45:52.804Z,5.63
2023-04-24T00:50:56.840Z,5.43
2023-04-24T00:56:00.916Z,6.00
2023-04-24T01:01:08.126Z,3.25
2023-04-24T01:06:12.189Z,1.80
2023-04-24T01:11:13.977Z,1.40
2023-04-24T01:16:18.682Z,1.10
2023-04-24T01:21:24.902Z,0.85
2023-04-24T01:26:33.808Z,0.77
2023-04-24T01:31:35.561Z,1.00
2023-04-24T01:36:40.093Z,1.10
2023-04-24T01:41:44.238Z,0.90
2023-04-24T01:46:46.785Z,1.00
2023-04-24T01:51:48.621Z,1.25
2023-04-24T01:56:53.319Z,1.38
2023-04-24T02:01:59.455Z,1.60
2023-04-24T02:07:01.212Z,1.80
2023-04-24T02:12:02.857Z,2.03
2023-04-24T02:17:04.699Z,2.45
2023-04-24T02:22:12.044Z,3.10
2023-04-24T02:27:13.807Z,3.72
2023-04-24T02:32:22.886Z,4.33
2023-04-24T02:37:27.143Z,3.95
2023-04-24T02:42:31.152Z,3.80
2023-04-24T02:47:38.525Z,4.73
2023-04-24T02:52:40.359Z,4.53
2023-04-24T02:57:45.355Z,5.63
2023-04-24T03:02:47.104Z,4.37
2023-04-24T03:07:48.969Z,5.53
2023-04-24T03:12:56.007Z,7.50
2023-04-24T03:17:57.896Z,8.23
2023-04-24T03:23:02.179Z,8.00
2023-04-24T03:28:07.289Z,9.20
2023-04-24T03:33:14.850Z,9.77
2023-04-24T03:38:24.966Z,10.90
2023-04-24T03:43:53.476Z,11.10
2023-04-24T03:48:57.540Z,9.10
2023-04-24T03:54:04.273Z,13.85
2023-04-24T03:59:11.213Z,12.90
2023-04-24T04:04:14.422Z,12.40
2023-04-24T04:09:16.867Z,10.37
2023-04-24T04:14:18.516Z,12.40
2023-04-24T04:19:23.437Z,12.87
2023-04-24T04:24:27.585Z,12.70
2023-04-24T04:29:32.460Z,11.37
2023-04-24T04:34:38.665Z,13.33
2023-04-24T04:39:42.239Z,10.80
2023-04-24T04:44:48.705Z,10.83
2023-04-24T04:49:57.747Z,10.27
2023-04-24T04:55:02.560Z,8.63
2023-04-24T05:00:26.623Z,9.07
2023-04-24T05:05:31.143Z,11.30
2023-04-24T05:10:33.053Z,13.13
2023-04-24T05:15:39.480Z,10.77
2023-04-24T05:20:42.478Z,12.07
2023-04-24T05:25:44.347Z,10.60
2023-04-24T05:30:49.641Z,10.17
2023-04-24T05:35:56.001Z,10.30
2023-04-24T05:40:58.184Z,9.20
2023-04-24T05:45:59.927Z,9.23
2023-04-24T05:51:03.929Z,8.00
2023-04-24T05:56:08.681Z,8.67
2023-04-24T06:01:11.221Z,9.67
2023-04-24T06:06:17.792Z,8.70
2023-04-24T06:11:22.117Z,6.73
2023-04-24T06:16:26.383Z,8.47
2023-04-24T06:21:34.912Z,8.10
2023-04-24T06:26:36.675Z,7.23
2023-04-24T06:31:42.936Z,5.43
2023-04-24T06:36:45.968Z,6.20
2023-04-24T06:41:47.626Z,5.70
2023-04-24T06:46:55.029Z,5.40
2023-04-24T06:51:56.769Z,5.40
2023-04-24T06:57:04.541Z,5.40
2023-04-24T07:02:06.433Z,4.70
2023-04-24T07:07:14.024Z,5.17
2023-04-24T07:12:18.075Z,4.97
2023-04-24T07:17:21.891Z,3.97
2023-04-24T07:22:23.904Z,4.93
2023-04-24T07:27:27.245Z,4.53
2023-04-24T07:32:31.520Z,3.90
2023-04-24T07:37:35.540Z,4.10
2023-04-24T07:42:37.478Z,3.90
2023-04-24T07:47:40.750Z,4.13
2023-04-24T07:52:42.471Z,3.60
2023-04-24T07:57:44.179Z,3.47
2023-04-24T08:02:46.532Z,4.10
2023-04-24T08:07:51.392Z,3.30
2023-04-24T08:12:58.047Z,3.42
2023-04-24T08:18:01.981Z,4.03
2023-04-24T08:23:03.775Z,4.32
2023-04-24T08:28:10.242Z,3.63
2023-04-24T08:33:11.945Z,3.70
2023-04-24T08:38:18.621Z,3.83
2023-04-24T08:43:23.317Z,3.92
2023-04-24T08:48:31.904Z,5.13
2023-04-24T08:53:37.506Z,5.60
2023-04-24T08:58:42.634Z,5.57
2023-04-24T09:03:44.772Z,4.30
2023-04-24T09:08:50.569Z,4.00
2023-04-24T09:13:56.140Z,4.43
2023-04-24T09:18:57.909Z,4.30
2023-04-24T09:24:08.683Z,3.30
2023-04-24T09:29:19.577Z,2.83
2023-04-24T09:34:25.134Z,3.87
2023-04-24T09:39:26.869Z,3.93
2023-04-24T09:44:35.427Z,4.90
2023-04-24T09:49:44.900Z,5.78
2023-04-24T09:54:54.206Z,7.10
2023-04-24T09:59:56.021Z,9.17
2023-04-24T10:05:00.068Z,8.13
2023-04-24T10:10:09.111Z,7.53
2023-04-24T10:15:14.248Z,8.30
2023-04-24T10:20:16.315Z,10.03
2023-04-24T10:25:24.921Z,8.30
2023-04-24T10:30:28.619Z,7.93
2023-04-24T10:35:32.561Z,10.20
2023-04-24T10:40:37.589Z,12.77
2023-04-24T10:45:40.070Z,10.93
2023-04-24T10:50:48.826Z,7.63
2023-04-24T10:55:52.358Z,4.47
2023-04-24T11:01:03.957Z,4.10
2023-04-24T11:06:09.723Z,7.77
2023-04-24T11:11:12.789Z,9.83
2023-04-24T11:16:14.938Z,11.13
2023-04-24T11:21:22.591Z,12.07
2023-04-24T11:26:31.286Z,14.85
2023-04-24T11:31:43.057Z,14.33
2023-04-24T11:36:53.340Z,12.27
2023-04-24T11:42:03.259Z,15.27
2023-04-24T11:47:06.779Z,15.90
2023-04-24T11:52:16.708Z,17.23
2023-04-24T11:57:23.121Z,18.57
2023-04-24T12:02:26.883Z,16.60
2023-04-24T12:07:28.763Z,15.20
2023-04-24T12:12:34.958Z,19.60
2023-04-24T12:17:42.290Z,24.50
2023-04-24T12:22:57.433Z,30.27
2023-04-24T12:28:05.043Z,30.00
2023-04-24T12:33:11.975Z,28.93
2023-04-24T12:38:15.018Z,21.83
2023-04-24T12:43:21.007Z,26.83
2023-04-24T12:48:27.857Z,21.00
2023-04-24T12:53:34.627Z,23.73
2023-04-24T12:58:36.424Z,21.20
2023-04-24T13:03:38.513Z,18.80
2023-04-24T13:08:43.675Z,14.73
2023-04-24T13:13:50.064Z,20.70
2023-04-24T13:18:54.841Z,21.70
2023-04-24T13:23:59.108Z,17.17
2023-04-24T13:29:00.961Z,14.53
2023-04-24T13:34:09.894Z,16.53
2023-04-24T13:39:11.894Z,14.90
2023-04-24T13:44:21.471Z,14.03
2023-04-24T13:49:26.330Z,14.40
2023-04-24T13:54:28.339Z,14.43
2023-04-24T13:59:31.031Z,15.67
2023-04-24T14:04:33.232Z,14.17
2023-04-24T14:09:35.574Z,16.53
2023-04-24T14:14:39.942Z,14.27
2023-04-24T14:19:43.938Z,14.13
2023-04-24T14:24:50.666Z,16.03
2023-04-24T14:29:57.877Z,14.13
2023-04-24T14:34:59.735Z,14.87
2023-04-24T14:40:33.739Z,12.53
2023-04-24T14:45:30.843Z,10.60
2023-04-24T14:50:34.846Z,11.23
2023-04-24T14:55:37.335Z,10.13
2023-04-24T15:00:41.301Z,8.00
2023-04-24T15:05:43.204Z,9.00
2023-04-24T15:10:47.652Z,6.63
2023-04-24T15:15:50.005Z,4.90
2023-04-24T15:20:54.118Z,4.80
2023-04-24T15:25:55.797Z,3.67
2023-04-24T15:30:57.618Z,3.73
2023-04-24T15:35:59.330Z,3.27
2023-04-24T15:41:01.128Z,2.60
2023-04-24T15:46:04.627Z,2.37
2023-04-24T15:51:08.678Z,2.00
2023-04-24T15:56:10.514Z,2.30
2023-04-24T16:01:17.022Z,2.40
2023-04-24T16:06:21.321Z,2.30
2023-04-24T16:11:23.180Z,2.10
2023-04-24T16:16:24.926Z,2.17
2023-04-24T16:21:28.193Z,2.60
2023-04-24T16:26:33.682Z,2.30
2023-04-24T16:31:37.911Z,2.60
2023-04-24T16:36:42.988Z,2.77
2023-04-24T16:41:45.301Z,2.47
2023-04-24T16:46:49.486Z,2.43
2023-04-24T16:51:58.652Z,2.33
2023-04-24T16:57:03.907Z,2.30
2023-04-24T17:02:08.412Z,2.50
2023-04-24T17:07:10.322Z,2.30
2023-04-24T17:12:12.115Z,2.60
2023-04-24T17:17:16.475Z,2.70
2023-04-24T17:22:19.677Z,2.90
2023-04-24T17:27:22.223Z,3.43
2023-04-24T17:32:38.806Z,3.27
2023-04-24T17:37:46.172Z,3.53
2023-04-24T17:42:50.298Z,3.37
2023-04-24T17:47:52.038Z,3.40
2023-04-24T17:52:53.693Z,4.07
2023-04-24T17:57:55.497Z,3.30
2023-04-24T18:03:04.058Z,3.20
2023-04-24T18:08:08.570Z,3.63
2023-04-24T18:13:13.060Z,3.73
2023-04-24T18:18:18.109Z,4.33
2023-04-24T18:23:19.859Z,4.57
2023-04-24T18:28:26.893Z,6.20
2023-04-24T18:33:31.154Z,4.63
2023-04-24T18:38:36.629Z,4.77
2023-04-24T18:43:38.339Z,4.00
2023-04-24T18:48:40.012Z,4.60
2023-04-24T18:53:41.760Z,3.90
2023-04-24T18:58:46.984Z,3.25
2023-04-24T19:03:49.125Z,2.90
2023-04-24T19:08:51.410Z,3.07
2023-04-24T19:13:57.441Z,3.60
2023-04-24T19:19:03.662Z,2.50
2023-04-24T19:24:11.830Z,3.00
2023-04-24T19:29:13.708Z,2.50
2023-04-24T19:34:15.458Z,3.03
2023-04-24T19:39:19.410Z,3.70
2023-04-24T19:44:21.138Z,3.03
2023-04-24T19:49:25.046Z,3.73
2023-04-24T19:54:28.985Z,3.60
2023-04-24T19:59:32.868Z,3.53
2023-04-24T20:04:38.497Z,3.27
2023-04-24T20:09:43.474Z,3.40
2023-04-24T20:14:48.390Z,3.50
2023-04-24T20:19:50.236Z,4.00
2023-04-24T20:24:56.951Z,3.40
2023-04-24T20:30:01.147Z,3.53
2023-04-24T20:35:05.720Z,3.80
2023-04-24T20:40:10.346Z,3.80
2023-04-24T20:45:12.145Z,4.80
2023-04-24T20:50:14.067Z,4.57
2023-04-24T20:55:17.902Z,5.03
2023-04-24T21:00:19.644Z,4.23
2023-04-24T21:05:21.544Z,4.53
2023-04-24T21:10:24.095Z,5.43
2023-04-24T21:15:25.899Z,4.90
2023-04-24T21:20:30.296Z,5.87
2023-04-24T21:25:31.997Z,5.67
2023-04-24T21:30:36.620Z,5.77
2023-04-24T21:35:43.027Z,6.17
2023-04-24T21:40:45.039Z,8.17
2023-04-24T21:45:46.917Z,7.87
2023-04-24T21:50:48.863Z,8.30
2023-04-24T21:55:52.995Z,9.20
2023-04-24T22:00:54.738Z,9.27
2023-04-24T22:06:01.162Z,7.13
2023-04-24T22:11:03.340Z,6.97
2023-04-24T22:16:08.857Z,5.80
2023-04-24T22:21:10.797Z,6.60
2023-04-24T22:26:12.877Z,6.07
2023-04-24T22:31:19.363Z,6.70
2023-04-24T22:36:21.740Z,5.97
2023-04-24T22:41:28.015Z,7.37
2023-04-24T22:46:31.059Z,6.40
2023-04-24T22:51:35.644Z,6.13
2023-04-24T22:56:37.985Z,6.47
2023-04-24T23:01:41.949Z,6.87
2023-04-24T23:06:48.446Z,6.20
2023-04-24T23:11:52.580Z,6.67
2023-04-24T23:16:54.290Z,6.63
2023-04-24T23:22:00.810Z,6.00
2023-04-24T23:27:05.109Z,6.73
2023-04-24T23:32:08.966Z,6.37
2023-04-24T23:37:11.571Z,6.20
2023-04-24T23:42:13.209Z,6.07
2023-04-24T23:47:14.980Z,5.40
2023-04-24T23:52:16.682Z,5.57
2023-04-24T23:57:23.634Z,4.67
